Time;durP1;ratioP1;P1;durP2;ratioP2;P2;SDS_P1;SDS_P2;PMS_P1;PMS_P2;Temp;Humidity;BMP_temperature;BMP_pressure;BME280_temperature;BME280_humidity;BME280_pressure;Samples;Min_cycle;Max_cycle;Signal;HPM_P1;HPM_P2
2021/05/28 00:00:47;;;;;;;2.20;2.00;;;12.00;68.30;;;;;;4998692;28;21949;-67
2021/05/28 00:03:15;;;;;;;2.17;1.98;;;11.90;68.40;;;;;;4995357;28;20524;-67
2021/05/28 00:05:43;;;;;;;2.67;2.05;;;11.90;68.40;;;;;;4984472;28;20038;-66
2021/05/28 00:08:10;;;;;;;2.15;2.03;;;11.90;68.60;;;;;;4990634;28;20121;-68
2021/05/28 00:10:36;;;;;;;2.70;1.73;;;11.80;68.60;;;;;;4992221;28;20053;-66
2021/05/28 00:13:04;;;;;;;3.55;2.00;;;11.70;68.60;;;;;;4995838;28;20049;-67
2021/05/28 00:15:33;;;;;;;2.10;2.00;;;11.70;68.60;;;;;;4999814;28;20092;-67
2021/05/28 00:18:01;;;;;;;2.47;1.80;;;11.60;68.70;;;;;;4989649;28;20066;-67
2021/05/28 00:20:27;;;;;;;2.80;2.08;;;11.60;68.70;;;;;;4994325;28;20038;-66
2021/05/28 00:22:58;;;;;;;3.58;2.03;;;11.60;69.00;;;;;;4980171;28;20049;-66
2021/05/28 00:25:26;;;;;;;2.30;2.10;;;11.60;69.00;;;;;;4985854;28;20042;-66
2021/05/28 00:27:54;;;;;;;2.45;2.13;;;11.60;69.00;;;;;;4989829;28;20030;-67
2021/05/28 00:30:22;;;;;;;2.33;2.13;;;11.50;69.00;;;;;;4982707;28;20513;-66
2021/05/28 00:32:48;;;;;;;2.95;2.10;;;11.40;69.10;;;;;;4996467;28;20104;-66
2021/05/28 00:35:17;;;;;;;4.38;2.00;;;11.40;69.20;;;;;;4997490;28;20026;-67
2021/05/28 00:37:47;;;;;;;2.97;2.13;;;11.30;69.30;;;;;;4989709;28;23196;-67
2021/05/28 00:40:16;;;;;;;3.13;2.28;;;11.30;69.30;;;;;;4994314;28;20675;-67
2021/05/28 00:42:44;;;;;;;2.28;2.08;;;11.30;69.30;;;;;;4982689;28;20049;-67
2021/05/28 00:45:13;;;;;;;2.20;2.03;;;11.30;69.10;;;;;;4990870;28;20034;-68
2021/05/28 00:47:43;;;;;;;2.58;2.38;;;11.30;69.20;;;;;;4985524;28;20494;-66
2021/05/28 00:50:09;;;;;;;2.47;2.28;;;11.20;69.20;;;;;;4979236;28;20038;-66
2021/05/28 00:52:35;;;;;;;2.45;2.25;;;11.20;69.30;;;;;;4979163;28;20498;-66
2021/05/28 00:55:03;;;;;;;2.67;2.42;;;11.20;69.40;;;;;;4983067;28;20038;-66
2021/05/28 00:57:29;;;;;;;2.33;2.15;;;11.20;69.30;;;;;;4988760;28;20027;-66
2021/05/28 00:59:58;;;;;;;2.33;2.05;;;11.10;69.20;;;;;;4988823;28;20049;-67
2021/05/28 01:02:25;;;;;;;3.10;2.50;;;11.10;69.30;;;;;;4996229;28;20053;-66
2021/05/28 01:04:56;;;;;;;2.47;2.28;;;11.10;70.20;;;;;;4993437;28;20571;-67
2021/05/28 01:07:22;;;;;;;2.90;2.58;;;11.10;69.60;;;;;;4977844;28;20513;-67
2021/05/28 01:09:50;;;;;;;2.75;2.50;;;11.00;69.50;;;;;;4990888;28;20045;-66
2021/05/28 01:12:15;;;;;;;2.80;2.60;;;11.00;69.60;;;;;;4990166;28;20030;-67
2021/05/28 01:14:43;;;;;;;3.40;2.50;;;11.00;69.80;;;;;;4979780;28;20090;-68
2021/05/28 01:17:09;;;;;;;2.72;2.50;;;10.90;69.90;;;;;;4987059;28;20063;-66
2021/05/28 01:19:34;;;;;;;2.85;2.65;;;10.90;69.90;;;;;;4988280;28;20062;-68
2021/05/28 01:22:08;;;;;;;3.00;2.70;;;10.80;69.90;;;;;;4983686;28;20037;-67
2021/05/28 01:24:38;;;;;;;3.58;2.92;;;10.80;70.50;;;;;;4991919;28;20512;-66
2021/05/28 01:27:09;;;;;;;4.88;2.85;;;10.70;70.40;;;;;;4982465;28;20467;-68
2021/05/28 01:29:39;;;;;;;3.25;2.95;;;10.70;70.40;;;;;;4986461;28;20518;-65
2021/05/28 01:32:05;;;;;;;2.95;2.75;;;10.70;70.60;;;;;;4992410;28;20043;-66
2021/05/28 01:34:33;;;;;;;2.88;2.65;;;10.60;70.60;;;;;;4978865;28;20105;-67
2021/05/28 01:37:04;;;;;;;2.95;2.70;;;10.60;70.90;;;;;;4990930;28;20091;-66
2021/05/28 01:39:32;;;;;;;3.95;2.78;;;10.60;71.10;;;;;;4983776;28;20038;-66
2021/05/28 01:42:00;;;;;;;4.15;2.88;;;10.50;71.20;;;;;;4982281;28;20030;-68
2021/05/28 01:44:30;;;;;;;3.20;2.65;;;10.50;71.10;;;;;;4994172;28;20118;-67
2021/05/28 01:47:00;;;;;;;2.67;2.40;;;10.50;71.30;;;;;;4977558;28;20022;-67
2021/05/28 01:49:31;;;;;;;2.83;2.60;;;10.40;71.30;;;;;;4995669;28;20040;-65
2021/05/28 01:51:59;;;;;;;2.95;2.28;;;10.40;71.30;;;;;;4999515;28;20030;-66
2021/05/28 01:54:27;;;;;;;3.95;2.90;;;10.40;72.30;;;;;;4979155;28;20041;-66
2021/05/28 01:56:53;;;;;;;2.50;2.30;;;10.40;71.40;;;;;;4991532;28;20038;-66
2021/05/28 01:59:25;;;;;;;2.92;2.60;;;10.40;71.60;;;;;;4983843;28;20088;-66
2021/05/28 02:01:56;;;;;;;3.47;2.70;;;10.40;72.10;;;;;;4982226;28;20030;-66
2021/05/28 02:04:27;;;;;;;2.80;2.53;;;10.40;71.90;;;;;;4991427;28;20535;-66
2021/05/28 02:06:55;;;;;;;2.95;2.58;;;10.40;71.70;;;;;;4980177;28;20121;-67
2021/05/28 02:09:23;;;;;;;4.32;2.55;;;10.30;71.80;;;;;;4992124;28;20069;-65
2021/05/28 02:11:56;;;;;;;3.67;2.47;;;10.30;71.70;;;;;;4991040;28;20034;-66
2021/05/28 02:14:23;;;;;;;2.88;2.40;;;10.30;71.70;;;;;;4978248;28;20034;-67
2021/05/28 02:16:54;;;;;;;3.95;2.78;;;10.30;71.70;;;;;;4997577;28;20096;-66
2021/05/28 02:19:20;;;;;;;2.40;2.20;;;10.30;72.00;;;;;;4994867;28;20623;-66
2021/05/28 02:21:54;;;;;;;2.70;2.50;;;10.20;71.60;;;;;;4985497;28;20039;-66
2021/05/28 02:24:23;;;;;;;2.88;2.40;;;10.20;71.60;;;;;;4989968;28;20065;-67
2021/05/28 02:26:50;;;;;;;2.45;2.25;;;10.20;71.60;;;;;;4994571;28;20038;-66
2021/05/28 02:29:23;;;;;;;3.35;2.30;;;10.20;71.80;;;;;;5016349;28;20106;-66
2021/05/28 02:31:56;;;;;;;4.57;2.30;;;10.10;72.00;;;;;;5001518;28;20109;-66
2021/05/28 02:34:21;;;;;;;2.72;2.53;;;10.10;72.10;;;;;;4978757;28;20046;-67
2021/05/28 02:36:49;;;;;;;3.00;2.40;;;10.10;72.10;;;;;;5001923;28;20030;-67
2021/05/28 02:39:17;;;;;;;4.07;3.00;;;10.10;72.30;;;;;;4996548;28;20042;-66
2021/05/28 02:41:43;;;;;;;3.33;2.60;;;10.10;72.30;;;;;;4992312;28;20432;-67
2021/05/28 02:44:09;;;;;;;2.85;2.65;;;9.90;72.20;;;;;;4995862;28;20053;-68
2021/05/28 02:46:37;;;;;;;2.90;2.70;;;10.00;73.20;;;;;;4979410;28;20047;-66
2021/05/28 02:49:03;;;;;;;3.45;3.10;;;10.00;72.40;;;;;;4999822;28;20033;-66
2021/05/28 02:51:28;;;;;;;3.30;2.83;;;9.90;72.40;;;;;;4992371;28;20042;-66
2021/05/28 02:53:56;;;;;;;3.53;2.95;;;9.90;72.50;;;;;;4982610;28;20391;-66
2021/05/28 02:56:25;;;;;;;3.10;2.80;;;9.90;72.60;;;;;;4989630;28;20094;-67
2021/05/28 02:58:50;;;;;;;3.03;2.70;;;9.80;72.50;;;;;;4978775;28;20034;-66
2021/05/28 03:01:16;;;;;;;4.55;2.92;;;9.80;72.60;;;;;;4988197;28;20030;-66
2021/05/28 03:03:46;;;;;;;3.50;3.20;;;9.80;72.70;;;;;;4988206;28;20548;-66
2021/05/28 03:06:16;;;;;;;3.65;2.92;;;9.80;72.80;;;;;;4982245;28;20041;-66
2021/05/28 03:08:44;;;;;;;3.20;2.90;;;9.80;72.70;;;;;;4991322;28;20121;-66
2021/05/28 03:11:10;;;;;;;3.20;2.90;;;9.80;72.60;;;;;;4982318;28;20437;-66
2021/05/28 03:13:40;;;;;;;4.13;3.65;;;9.80;72.50;;;;;;4985731;28;20042;-66
2021/05/28 03:16:10;;;;;;;5.35;3.42;;;9.80;72.80;;;;;;4988634;28;20114;-66
2021/05/28 03:18:47;;;;;;;5.22;3.70;;;9.80;72.90;;;;;;4979475;28;20497;-66
2021/05/28 03:24:13;;;;;;;4.38;3.67;;;9.90;72.90;;;;;;4964802;28;20034;-66
2021/05/28 03:26:41;;;;;;;3.90;3.60;;;9.90;72.60;;;;;;4995594;28;20053;-66
2021/05/28 03:29:09;;;;;;;6.18;3.63;;;9.90;72.60;;;;;;4996365;28;20038;-67
2021/05/28 03:31:35;;;;;;;4.07;3.50;;;9.90;72.80;;;;;;5000565;28;20462;-66
2021/05/28 03:34:03;;;;;;;4.07;3.67;;;9.80;72.50;;;;;;4981541;28;20061;-66
2021/05/28 03:36:31;;;;;;;4.13;3.72;;;9.90;72.50;;;;;;4991243;28;20085;-65
2021/05/28 03:38:57;;;;;;;4.97;3.90;;;9.80;72.60;;;;;;4985213;28;20037;-66
2021/05/28 03:41:25;;;;;;;4.80;3.78;;;9.70;72.90;;;;;;4999381;28;20045;-66
2021/05/28 03:43:50;;;;;;;4.43;3.90;;;9.60;73.00;;;;;;4998457;28;20452;-66
2021/05/28 03:46:18;;;;;;;4.57;3.78;;;9.60;73.20;;;;;;4991156;28;20093;-67
2021/05/28 03:48:48;;;;;;;4.10;3.50;;;9.60;73.10;;;;;;4994954;28;20448;-66
2021/05/28 03:51:16;;;;;;;3.72;3.38;;;9.50;73.10;;;;;;4981464;28;20068;-66
2021/05/28 03:53:45;;;;;;;3.85;3.17;;;9.50;73.10;;;;;;4995152;28;20528;-66
2021/05/28 03:56:11;;;;;;;4.03;3.13;;;9.40;73.20;;;;;;4996254;28;20134;-65
2021/05/28 03:58:39;;;;;;;6.35;3.63;;;9.40;73.10;;;;;;4982812;28;20098;-66
2021/05/28 04:01:04;;;;;;;5.38;3.90;;;9.30;73.00;;;;;;4990283;28;20319;-66
2021/05/28 04:03:35;;;;;;;3.58;3.28;;;9.30;73.40;;;;;;4985687;28;20125;-67
2021/05/28 04:06:05;;;;;;;4.75;3.65;;;9.30;74.00;;;;;;4982270;28;20045;-66
2021/05/28 04:08:35;;;;;;;6.18;3.58;;;9.20;74.90;;;;;;4995880;28;20035;-67
2021/05/28 04:11:06;;;;;;;4.80;3.90;;;9.20;74.40;;;;;;4979224;28;20445;-66
2021/05/28 04:13:32;;;;;;;3.55;3.25;;;9.10;74.20;;;;;;4986494;28;20038;-68
2021/05/28 04:16:03;;;;;;;4.05;3.65;;;9.10;74.20;;;;;;4993623;28;20025;-68
2021/05/28 04:18:29;;;;;;;4.95;3.70;;;9.20;74.70;;;;;;4990775;28;20482;-66
2021/05/28 04:20:57;;;;;;;5.97;3.40;;;9.10;74.40;;;;;;4991940;28;20041;-66
2021/05/28 04:23:22;;;;;;;3.92;3.63;;;9.20;74.40;;;;;;4989901;28;20151;-66
2021/05/28 04:25:53;;;;;;;4.35;3.95;;;9.20;74.40;;;;;;4986224;28;20701;-66
2021/05/28 04:28:21;;;;;;;3.78;3.47;;;9.20;74.30;;;;;;4994621;28;20046;-66
2021/05/28 04:30:51;;;;;;;3.65;3.35;;;9.20;74.20;;;;;;4999310;28;20045;-66
2021/05/28 04:33:19;;;;;;;3.85;3.47;;;9.20;74.20;;;;;;4990476;28;20065;-66
2021/05/28 04:35:45;;;;;;;4.63;4.18;;;9.20;74.20;;;;;;4984886;28;20033;-67
2021/05/28 04:38:11;;;;;;;4.15;3.75;;;9.20;74.40;;;;;;4997995;28;20049;-70
2021/05/28 04:40:36;;;;;;;4.75;4.10;;;9.20;74.60;;;;;;4996351;28;20034;-67
2021/05/28 04:43:02;;;;;;;4.07;3.67;;;9.20;74.70;;;;;;4984034;28;20030;-68
2021/05/28 04:45:30;;;;;;;4.10;3.58;;;9.20;74.90;;;;;;4987821;28;20058;-67
2021/05/28 04:47:56;;;;;;;4.70;4.25;;;9.20;75.00;;;;;;4992962;28;20034;-66
2021/05/28 04:50:35;;;;;;;5.00;3.85;;;9.30;75.30;;;;;;4983183;28;20058;-68
2021/05/28 04:53:05;;;;;;;6.32;4.35;;;9.30;75.60;;;;;;4993895;28;20058;-67
2021/05/28 04:55:31;;;;;;;6.43;4.32;;;9.40;75.60;;;;;;4988766;28;20058;-67
2021/05/28 04:57:57;;;;;;;5.88;3.90;;;9.40;75.80;;;;;;4986613;28;20030;-67
2021/05/28 05:00:30;;;;;;;10.02;4.80;;;9.50;75.90;;;;;;4997125;28;20037;-68
2021/05/28 05:03:00;;;;;;;6.03;4.32;;;9.60;76.30;;;;;;4985085;28;20038;-67
2021/05/28 05:05:31;;;;;;;9.82;4.85;;;9.60;76.30;;;;;;4989637;28;20043;-67
2021/05/28 05:07:59;;;;;;;7.55;4.72;;;9.60;76.30;;;;;;4991661;28;20035;-66
2021/05/28 05:10:27;;;;;;;5.28;3.95;;;9.70;76.60;;;;;;4984183;28;20062;-67
2021/05/28 05:12:54;;;;;;;8.18;4.68;;;9.80;76.40;;;;;;4995707;28;20038;-67
2021/05/28 05:15:24;;;;;;;7.88;4.82;;;9.90;76.50;;;;;;4988354;28;20073;-67
2021/05/28 05:17:55;;;;;;;5.93;4.55;;;9.90;76.60;;;;;;5002965;28;20039;-67
2021/05/28 05:20:23;;;;;;;8.80;5.05;;;10.00;77.00;;;;;;4996334;28;20041;-68
2021/05/28 05:22:48;;;;;;;12.90;5.30;;;10.10;77.00;;;;;;4998594;28;20042;-67
2021/05/28 05:25:16;;;;;;;13.07;5.30;;;10.20;77.00;;;;;;4992873;28;20118;-67
2021/05/28 05:27:44;;;;;;;8.30;5.10;;;10.30;77.20;;;;;;4991227;28;20034;-68
2021/05/28 05:30:15;;;;;;;9.88;5.57;;;10.30;77.30;;;;;;4983746;28;20035;-67
2021/05/28 05:32:40;;;;;;;11.10;5.00;;;10.40;77.40;;;;;;4996072;28;20041;-67
2021/05/28 05:35:09;;;;;;;11.20;4.72;;;10.50;77.50;;;;;;4985106;28;20030;-67
2021/05/28 05:37:34;;;;;;;6.68;4.65;;;10.60;77.40;;;;;;4988655;28;20109;-67
2021/05/28 05:40:00;;;;;;;6.00;4.90;;;10.70;77.10;;;;;;4992956;28;20498;-67
2021/05/28 05:42:28;;;;;;;5.82;4.28;;;10.80;76.80;;;;;;4982050;28;20035;-67
2021/05/28 05:44:53;;;;;;;5.50;4.28;;;10.90;76.80;;;;;;4994316;28;20054;-67
2021/05/28 05:47:19;;;;;;;5.38;4.40;;;11.00;76.60;;;;;;4984842;28;20034;-67
2021/05/28 05:49:44;;;;;;;6.90;4.00;;;11.10;76.40;;;;;;4986281;28;20061;-67
2021/05/28 05:52:10;;;;;;;4.25;3.88;;;11.10;76.20;;;;;;4993340;28;20548;-66
2021/05/28 05:54:38;;;;;;;4.43;4.03;;;11.20;76.00;;;;;;4979987;28;20034;-67
2021/05/28 05:57:04;;;;;;;5.03;4.13;;;11.30;76.00;;;;;;4991480;28;20034;-67
2021/05/28 05:59:32;;;;;;;4.22;3.85;;;11.40;76.10;;;;;;4989382;28;20034;-68
2021/05/28 06:01:57;;;;;;;5.88;3.97;;;11.50;76.10;;;;;;4986030;28;20037;-67
2021/05/28 06:04:26;;;;;;;3.83;3.45;;;11.60;75.60;;;;;;4996459;28;20456;-67
2021/05/28 06:06:54;;;;;;;5.97;3.90;;;11.70;75.60;;;;;;4997430;28;20032;-67
2021/05/28 06:09:22;;;;;;;4.10;3.70;;;11.80;75.30;;;;;;4990988;28;20035;-66
2021/05/28 06:11:47;;;;;;;4.30;3.55;;;11.80;75.10;;;;;;4990593;28;20404;-67
2021/05/28 06:14:15;;;;;;;3.95;3.55;;;11.90;75.10;;;;;;4982577;28;20042;-67
2021/05/28 06:16:43;;;;;;;3.90;3.60;;;11.90;74.90;;;;;;4994794;28;20136;-66
2021/05/28 06:19:11;;;;;;;3.83;3.38;;;12.00;75.00;;;;;;4983605;28;20037;-67
2021/05/28 06:21:41;;;;;;;5.70;3.50;;;12.10;74.70;;;;;;4987628;28;20045;-67
2021/05/28 06:24:10;;;;;;;3.88;3.42;;;12.10;74.90;;;;;;4988759;28;20037;-67
2021/05/28 06:26:38;;;;;;;4.00;3.33;;;12.20;74.40;;;;;;4979609;28;20074;-67
2021/05/28 06:29:06;;;;;;;3.60;3.13;;;12.30;74.30;;;;;;4993030;28;20125;-67
2021/05/28 06:31:34;;;;;;;4.70;3.35;;;12.30;74.20;;;;;;4989102;28;20092;-67
2021/05/28 06:34:05;;;;;;;3.80;3.50;;;12.30;74.00;;;;;;4985604;28;20038;-67
2021/05/28 06:36:33;;;;;;;4.50;3.42;;;12.40;73.90;;;;;;4995821;28;20113;-66
2021/05/28 06:38:59;;;;;;;4.68;4.28;;;12.50;73.90;;;;;;4984993;28;20100;-66
2021/05/28 06:41:24;;;;;;;5.82;4.35;;;12.60;73.70;;;;;;4989053;28;20038;-67
2021/05/28 06:43:55;;;;;;;4.60;4.20;;;12.70;73.60;;;;;;4993658;28;20030;-67
2021/05/28 06:46:25;;;;;;;4.35;3.90;;;12.70;73.50;;;;;;4982375;28;20070;-66
2021/05/28 06:48:54;;;;;;;4.32;3.92;;;12.70;73.50;;;;;;4995258;28;20038;-67
2021/05/28 06:51:22;;;;;;;4.07;3.72;;;12.80;73.70;;;;;;4997179;28;20084;-67
2021/05/28 06:53:51;;;;;;;4.45;4.05;;;12.80;73.80;;;;;;4985481;28;20596;-67
2021/05/28 06:56:19;;;;;;;4.30;3.90;;;12.90;73.70;;;;;;5000185;28;20084;-66
2021/05/28 06:58:48;;;;;;;5.88;4.50;;;13.00;73.80;;;;;;4981693;28;20037;-67
2021/05/28 07:01:19;;;;;;;4.93;4.07;;;13.00;73.90;;;;;;4988956;28;20035;-66
2021/05/28 07:03:45;;;;;;;7.38;4.45;;;13.10;73.90;;;;;;4983305;28;20034;-66
2021/05/28 07:06:11;;;;;;;5.53;4.70;;;13.20;73.70;;;;;;4980516;28;20034;-66
2021/05/28 07:08:39;;;;;;;5.43;4.93;;;13.20;73.50;;;;;;5008798;28;20444;-67
2021/05/28 07:11:07;;;;;;;14.43;4.65;;;13.40;73.40;;;;;;4988055;28;20041;-66
2021/05/28 07:13:35;;;;;;;5.03;4.30;;;13.40;73.00;;;;;;4992734;28;20042;-66
2021/05/28 07:16:06;;;;;;;6.32;4.40;;;13.50;72.80;;;;;;4997308;28;20038;-67
2021/05/28 07:18:33;;;;;;;5.32;4.47;;;13.60;73.60;;;;;;4986470;28;20505;-67
2021/05/28 07:20:59;;;;;;;4.75;4.30;;;13.70;72.60;;;;;;4996539;28;20042;-66
2021/05/28 07:23:25;;;;;;;4.53;4.13;;;13.70;72.40;;;;;;4990626;28;20034;-66
2021/05/28 07:25:51;;;;;;;4.88;4.32;;;13.80;72.20;;;;;;4988826;28;20532;-66
2021/05/28 07:28:19;;;;;;;6.07;4.35;;;13.90;72.10;;;;;;4995663;28;20038;-67
2021/05/28 07:30:48;;;;;;;4.55;4.05;;;14.00;71.00;;;;;;4990800;28;20038;-67
2021/05/28 07:33:13;;;;;;;6.57;4.20;;;14.10;71.10;;;;;;4993933;28;20050;-67
2021/05/28 07:35:41;;;;;;;4.50;3.90;;;14.20;70.90;;;;;;4989938;28;20038;-67
2021/05/28 07:38:09;;;;;;;5.80;4.57;;;14.30;70.40;;;;;;4984114;28;20066;-67
2021/05/28 07:40:37;;;;;;;5.90;4.63;;;14.30;70.60;;;;;;5002993;28;20026;-67
2021/05/28 07:43:03;;;;;;;3.90;3.60;;;14.40;70.60;;;;;;4986899;28;20049;-66
2021/05/28 07:45:31;;;;;;;5.18;4.15;;;14.50;70.60;;;;;;4993727;28;20027;-67
2021/05/28 07:47:57;;;;;;;5.40;4.75;;;14.60;70.40;;;;;;4995236;28;20034;-67
2021/05/28 07:50:26;;;;;;;4.78;4.38;;;14.70;70.00;;;;;;4984967;28;20525;-67
2021/05/28 07:52:53;;;;;;;4.32;3.92;;;14.80;69.50;;;;;;4996367;28;20038;-67
2021/05/28 07:55:21;;;;;;;5.43;4.35;;;14.80;69.50;;;;;;4989399;28;20117;-67
2021/05/28 07:57:52;;;;;;;5.97;4.60;;;14.90;69.80;;;;;;4989526;28;20041;-67
2021/05/28 08:00:20;;;;;;;6.45;5.10;;;15.00;68.50;;;;;;4996342;28;20042;-67
2021/05/28 08:02:47;;;;;;;6.60;4.95;;;15.10;68.30;;;;;;4981657;28;20034;-67
2021/05/28 08:05:13;;;;;;;6.97;4.57;;;15.30;68.60;;;;;;4991830;28;20695;-67
2021/05/28 08:07:41;;;;;;;5.13;4.63;;;15.30;67.60;;;;;;4994565;28;20457;-67
2021/05/28 08:10:10;;;;;;;5.43;4.75;;;15.40;67.60;;;;;;4985205;28;20104;-67
2021/05/28 08:12:40;;;;;;;5.47;4.90;;;15.50;67.50;;;;;;5012042;28;20045;-67
2021/05/28 08:15:08;;;;;;;5.50;5.00;;;15.70;67.40;;;;;;4987721;28;20026;-67
2021/05/28 08:17:44;;;;;;;5.82;5.32;;;15.80;67.40;;;;;;4990862;28;20401;-67
2021/05/28 08:20:10;;;;;;;7.57;5.50;;;15.90;68.00;;;;;;4995599;28;20110;-67
2021/05/28 08:22:36;;;;;;;6.18;5.57;;;16.00;66.50;;;;;;4982683;28;20037;-67
2021/05/28 08:25:09;;;;;;;5.88;5.28;;;16.00;66.40;;;;;;4995965;28;20606;-67
2021/05/28 08:27:35;;;;;;;6.03;5.43;;;16.10;66.10;;;;;;4992152;28;20038;-67
2021/05/28 08:30:01;;;;;;;5.75;5.25;;;16.20;66.10;;;;;;4987241;28;20031;-67
2021/05/28 08:32:26;;;;;;;5.70;5.10;;;16.40;65.20;;;;;;4997407;28;20046;-67
2021/05/28 08:34:59;;;;;;;5.60;5.10;;;16.40;64.70;;;;;;4983956;28;20113;-67
2021/05/28 08:37:27;;;;;;;4.97;4.53;;;16.50;64.50;;;;;;4990336;28;20402;-67
2021/05/28 08:39:57;;;;;;;5.20;4.70;;;16.50;64.80;;;;;;4990772;28;20049;-67
2021/05/28 08:42:23;;;;;;;5.28;4.65;;;16.70;64.30;;;;;;4980502;28;20038;-67
2021/05/28 08:44:52;;;;;;;7.45;5.10;;;16.70;64.10;;;;;;4992283;28;20321;-67
2021/05/28 08:47:20;;;;;;;5.85;4.75;;;16.80;63.30;;;;;;4986500;28;22143;-67
2021/05/28 08:49:50;;;;;;;6.88;5.15;;;16.90;63.60;;;;;;4988483;28;20045;-67
2021/05/28 08:52:22;;;;;;;5.18;4.68;;;17.10;63.70;;;;;;4993406;28;20105;-67
2021/05/28 08:54:49;;;;;;;5.13;4.60;;;17.10;63.40;;;;;;5000586;28;20409;-67
2021/05/28 08:57:18;;;;;;;6.90;5.20;;;17.30;62.90;;;;;;4991362;28;20494;-67
2021/05/28 08:59:46;;;;;;;5.82;5.22;;;17.40;62.60;;;;;;4991020;28;20501;-67
2021/05/28 09:02:44;;;;;;;5.65;5.05;;;17.60;61.50;;;;;;4987280;28;20581;-67
2021/05/28 09:05:14;;;;;;;5.00;4.50;;;17.70;61.00;;;;;;4961708;28;20055;-67
2021/05/28 09:07:57;;;;;;;4.43;4.03;;;17.80;61.50;;;;;;4991625;28;20092;-67
2021/05/28 09:10:42;;;;;;;4.78;4.30;;;18.00;60.50;;;;;;4982189;28;20971;-68
2021/05/28 09:13:18;;;;;;;5.05;4.35;;;18.10;59.90;;;;;;4993111;28;20046;-67
2021/05/28 09:16:05;;;;;;;5.03;4.53;;;18.30;60.30;;;;;;4997744;28;20678;-67
2021/05/28 09:19:02;;;;;;;5.47;4.97;;;18.40;59.20;;;;;;4983175;28;20027;-67
2021/05/28 09:21:32;;;;;;;4.72;4.32;;;18.60;57.70;;;;;;4991108;28;20414;-67
2021/05/28 09:24:02;;;;;;;5.65;5.15;;;18.70;58.60;;;;;;4994956;28;20049;-68
2021/05/28 09:26:31;;;;;;;5.97;5.47;;;18.70;57.80;;;;;;4979869;28;20701;-67
2021/05/28 09:28:59;;;;;;;5.47;4.97;;;18.80;57.20;;;;;;4992831;28;20758;-67
2021/05/28 09:31:32;;;;;;;5.50;5.00;;;18.70;58.10;;;;;;4988042;28;20085;-67
2021/05/28 09:34:03;;;;;;;4.72;4.32;;;18.70;57.70;;;;;;4986779;28;20046;-67
2021/05/28 09:36:35;;;;;;;4.93;4.47;;;18.70;57.50;;;;;;4999386;28;20041;-67
2021/05/28 09:39:07;;;;;;;5.35;4.85;;;18.80;57.70;;;;;;4983277;28;20042;-67
2021/05/28 09:41:57;;;;;;;5.25;4.85;;;18.80;57.20;;;;;;4988994;28;20506;-67
2021/05/28 09:44:33;;;;;;;3.85;3.55;;;18.90;56.70;;;;;;4995671;28;20129;-67
2021/05/28 09:47:16;;;;;;;4.70;4.30;;;19.00;56.60;;;;;;4988883;28;20030;-67
2021/05/28 09:49:54;;;;;;;4.63;4.22;;;19.00;55.50;;;;;;4984591;28;20035;-67
2021/05/28 09:52:29;;;;;;;4.53;4.13;;;19.00;55.40;;;;;;4997869;28;20034;-67
2021/05/28 09:55:01;;;;;;;6.50;4.85;;;19.00;56.20;;;;;;4998685;28;20029;-67
2021/05/28 09:57:41;;;;;;;5.43;4.93;;;19.00;56.70;;;;;;4988221;28;20030;-67
2021/05/28 10:00:38;;;;;;;5.28;4.78;;;19.00;55.60;;;;;;4993920;28;20499;-68
2021/05/28 10:03:18;;;;;;;7.50;5.45;;;19.00;56.00;;;;;;4998748;28;20026;-68
2021/05/28 10:05:51;;;;;;;5.03;4.63;;;19.00;55.80;;;;;;4986847;28;20038;-67
2021/05/28 10:08:19;;;;;;;4.85;4.45;;;18.90;56.20;;;;;;4995124;28;20030;-67
2021/05/28 10:10:49;;;;;;;5.40;4.88;;;18.80;56.70;;;;;;4980185;28;20292;-67
2021/05/28 10:13:17;;;;;;;4.97;4.57;;;18.80;56.70;;;;;;4991621;28;20042;-67
2021/05/28 10:15:44;;;;;;;5.40;4.90;;;18.80;57.00;;;;;;4989341;28;20426;-67
2021/05/28 10:18:15;;;;;;;5.50;5.00;;;18.80;57.00;;;;;;4983708;28;20038;-67
2021/05/28 10:20:50;;;;;;;5.40;4.90;;;18.80;56.80;;;;;;4991900;28;20510;-67
2021/05/28 10:23:20;;;;;;;4.97;4.57;;;18.90;56.40;;;;;;4985565;28;20096;-68
2021/05/28 10:25:47;;;;;;;6.07;4.82;;;18.90;56.90;;;;;;4988052;28;20027;-67
2021/05/28 10:28:22;;;;;;;5.47;4.95;;;18.90;55.30;;;;;;4990035;28;20037;-67
2021/05/28 10:30:51;;;;;;;5.70;5.18;;;18.90;55.50;;;;;;4994038;28;20030;-67
2021/05/28 10:33:22;;;;;;;5.25;4.75;;;19.00;56.30;;;;;;4997930;28;20030;-67
2021/05/28 10:35:50;;;;;;;5.50;5.00;;;19.00;56.70;;;;;;4995251;28;20034;-67
2021/05/28 10:38:33;;;;;;;5.88;5.38;;;19.10;56.50;;;;;;4981992;28;20105;-67
2021/05/28 10:41:08;;;;;;;6.32;5.60;;;19.10;55.60;;;;;;4994211;28;20034;-67
2021/05/28 10:43:36;;;;;;;6.10;5.50;;;19.30;55.40;;;;;;4996157;28;20042;-67
2021/05/28 10:46:13;;;;;;;5.63;5.13;;;19.30;56.20;;;;;;4983243;28;20605;-67
2021/05/28 10:48:44;;;;;;;5.90;5.30;;;19.40;54.90;;;;;;5008764;28;20050;-67
2021/05/28 10:51:17;;;;;;;6.40;5.63;;;19.50;53.70;;;;;;4986514;28;20109;-68
2021/05/28 10:53:52;;;;;;;7.43;5.50;;;19.50;53.80;;;;;;4985954;28;20042;-67
2021/05/28 10:56:21;;;;;;;5.57;5.07;;;19.40;54.80;;;;;;4992620;28;20046;-68
2021/05/28 10:59:16;;;;;;;5.65;5.15;;;19.40;53.90;;;;;;4998114;28;20493;-67
2021/05/28 11:01:47;;;;;;;5.97;5.22;;;19.40;54.10;;;;;;4984388;28;20525;-67
2021/05/28 11:04:25;;;;;;;5.22;4.72;;;19.40;54.60;;;;;;4990417;28;20046;-67
2021/05/28 11:07:03;;;;;;;5.38;4.88;;;19.50;54.30;;;;;;4996157;28;20417;-67
2021/05/28 11:09:48;;;;;;;4.97;4.47;;;19.50;52.80;;;;;;4988815;28;20022;-67
2021/05/28 11:12:13;;;;;;;4.00;3.70;;;19.40;52.20;;;;;;4994192;28;20038;-68
2021/05/28 11:15:08;;;;;;;5.20;4.40;;;19.30;52.70;;;;;;4984542;28;20313;-67
2021/05/28 11:17:55;;;;;;;6.18;5.18;;;19.30;52.80;;;;;;4986896;28;20031;-67
2021/05/28 11:20:34;;;;;;;5.50;5.10;;;19.20;53.60;;;;;;4994314;28;22033;-68
2021/05/28 11:23:05;;;;;;;5.40;4.97;;;19.30;53.80;;;;;;4982513;28;20034;-67
2021/05/28 11:25:32;;;;;;;5.25;4.18;;;19.30;54.50;;;;;;4988842;28;20080;-67
2021/05/28 11:28:08;;;;;;;6.30;4.32;;;19.50;54.40;;;;;;4996459;28;20042;-68
2021/05/28 11:30:54;;;;;;;5.72;5.22;;;19.50;53.80;;;;;;4980899;28;20442;-67
2021/05/28 11:34:15;;;;;;;4.90;4.50;;;19.60;53.20;;;;;;4990979;28;20031;-67
2021/05/28 11:36:42;;;;;;;4.75;4.30;;;19.70;53.70;;;;;;4974686;28;20512;-67
2021/05/28 11:39:23;;;;;;;3.53;3.22;;;19.80;53.10;;;;;;4988170;28;20492;-67
2021/05/28 11:42:10;;;;;;;2.92;2.60;;;19.80;52.60;;;;;;4996309;28;20402;-67
2021/05/28 11:44:36;;;;;;;8.20;3.42;;;19.90;52.70;;;;;;4995996;28;20501;-67
2021/05/28 11:47:06;;;;;;;3.58;3.20;;;19.90;53.60;;;;;;4983269;28;20088;-68
2021/05/28 11:49:37;;;;;;;4.35;4.05;;;20.00;52.60;;;;;;4986944;28;20868;-67
2021/05/28 11:52:07;;;;;;;4.03;3.63;;;20.00;51.90;;;;;;4991801;28;20050;-68
2021/05/28 11:54:37;;;;;;;4.40;3.70;;;20.00;52.50;;;;;;4981193;28;20498;-67
2021/05/28 11:57:12;;;;;;;3.80;3.40;;;20.00;52.10;;;;;;4995830;28;20054;-67
2021/05/28 11:59:54;;;;;;;4.68;3.53;;;20.10;51.00;;;;;;4989992;28;20038;-67
2021/05/28 12:02:43;;;;;;;4.28;3.88;;;20.00;50.10;;;;;;5000990;28;20134;-67
2021/05/28 12:05:30;;;;;;;3.17;2.88;;;20.00;50.70;;;;;;5001458;28;20509;-67
2021/05/28 12:08:16;;;;;;;3.85;2.90;;;19.90;51.60;;;;;;5002071;28;20184;-67
2021/05/28 12:10:44;;;;;;;;;;;19.90;51.90;;;;;;4979995;28;20065;-67
2021/05/28 12:13:14;;;;;;;4.18;3.47;;;19.90;52.30;;;;;;4981156;28;19944;-68
2021/05/28 12:15:48;;;;;;;3.78;3.40;;;19.90;52.30;;;;;;4984187;28;20035;-67
2021/05/28 12:18:29;;;;;;;5.22;3.15;;;19.90;52.10;;;;;;4980162;28;20485;-67
2021/05/28 12:20:58;;;;;;;4.80;4.07;;;19.90;52.00;;;;;;4997652;28;20037;-67
2021/05/28 12:23:31;;;;;;;4.35;3.75;;;19.90;51.50;;;;;;5002529;28;20133;-67
2021/05/28 12:26:03;;;;;;;3.17;2.97;;;19.90;51.80;;;;;;4988027;28;20034;-67
2021/05/28 12:28:33;;;;;;;2.63;2.42;;;20.00;51.80;;;;;;5010991;28;20043;-67
2021/05/28 12:31:21;;;;;;;2.85;2.60;;;20.00;52.60;;;;;;4982430;28;20030;-67
2021/05/28 12:34:05;;;;;;;2.85;2.55;;;20.00;50.20;;;;;;4986691;28;20116;-68
2021/05/28 12:36:39;;;;;;;3.70;3.40;;;20.10;50.90;;;;;;4995749;28;20169;-67
2021/05/28 12:39:12;;;;;;;2.70;2.50;;;20.10;52.00;;;;;;4988109;28;20034;-68
2021/05/28 12:41:42;;;;;;;2.85;2.65;;;20.10;51.80;;;;;;4978287;28;20034;-68
2021/05/28 12:44:11;;;;;;;2.50;2.30;;;20.20;52.10;;;;;;4987467;28;20049;-67
2021/05/28 12:46:39;;;;;;;3.25;3.03;;;20.20;52.30;;;;;;4979204;28;20043;-68
2021/05/28 12:49:10;;;;;;;3.20;3.00;;;20.30;51.70;;;;;;4985214;28;20043;-68
2021/05/28 12:51:44;;;;;;;5.43;3.20;;;20.40;51.10;;;;;;4983598;28;20026;-68
2021/05/28 12:54:19;;;;;;;3.03;2.72;;;20.40;50.50;;;;;;4976016;28;20083;-65
2021/05/28 12:56:47;;;;;;;;;;;20.40;49.50;;;;;;4987542;28;20031;-64
2021/05/28 12:59:28;;;;;;;2.30;2.20;;;20.50;51.20;;;;;;4978683;28;20042;-65
2021/05/28 13:01:58;;;;;;;2.35;2.15;;;20.50;50.70;;;;;;4981260;28;20031;-65
2021/05/28 13:04:29;;;;;;;44.80;4.25;;;20.50;51.20;;;;;;4968436;28;20039;-64
2021/05/28 13:06:55;;;;;;;3.00;2.70;;;20.50;51.00;;;;;;4990137;28;20408;-63